Terminal Aerodrome Forecast
Issued by NWS

Home | Current Version | Previous Version | Text Only | Print | Product List | Glossary On
Versions: 1 2 3 4 5 6 7 8 9 10 11 12 13 14 15 16 17 18 19 20 21 22 23 24 25 26
000
FTUS41 KPHI 050150 AAA
TAFMIV
TAF AMD
KMIV 050150Z 0502/0524 07006KT P6SM VCSH FEW020 OVC035
     FM050400 VRB03KT P6SM SCT040 BKN250
      TEMPO 0508/0512 2SM BR
     FM051200 01003KT P6SM SCT250
     FM051600 16006KT P6SM FEW050=

USA.gov is the U.S. government's official web portal to all federal, state and local government web resources and services.